メインページ
METAR-TAF:

METAR-TAF

空港 :

トリポリ, リビア

Mitiga International Airport

緯度: 32-54N, 経度: 13-17E, 海抜: 11m

現時点の気象観測

当レポートは24分前の22:55(UTC)に作成
東/南東の風 10kt
気温 20°C
湿度 78%
気圧 1017 hPa
視程: 7000m
高度4000ftの雲は散在している

METAR: HLLM 272255Z 11010KT 7000 SCT040 20/16 Q1017

時間: 01:19 (23:19 UTC)

予報

当レポートは42時間19分前の05:00(UTC)に作成
予報は26日の 06時(UTC)から 27日の 06時(UTC)まで有効
の風 12kt
視程10km以上
高度3000ftの雲はほとんどない
26日の 21時(UTC)から 26日の 23時(UTC)まで徐々に
変向風 2kt
27日の 03時(UTC)から 27日の 05時(UTC)まで徐々に
東/北東の風 12kt

TAF: HLLM 260500Z 2606/2706 08012KT 9999 FEW030 BECMG 2621/2623 VRB02KT BECMG 2703/2705 07012KT

4,000以上の空港の気象観測と天気予報(METAR報とTAF報)

利用可能な観測所は地図上に黄色い丸と赤い丸で示す。

丸の上にカーソルを重ねると観測所名を参照できる。

次にクリックすると気象観測と天気予報を参照できる。

マップの切り替え:黒色「×」印の緑ボタンをクリックして拡大、「-」印の緑ボタンをクリックして縮小、緑色の三角印をクリックして隣りの地図に切り替え


METAR-TAF: